Flight Track Log - Related Links

Times and Time Zones

All times are in EDT time to prevent confusion due to time zone crossing. See the CHQ5098 flight status page for this flight to view local times or setup timezone preferences in your user account.

Time Position Orientation Groundspeed Altitude Reporting Facility
EDT Latitude Longitude Course Direction KTS MPH feet Rate Location/Type
Thu 09:52:59 PM 42.0333 -87.9500 347° North 189 217 2,800  Level Chicago TRACON
Thu 09:53:59 PM 42.0833 -87.9833 334° Northwest 243 280 5,100 2,700 Climbing Chicago TRACON
Thu 09:54:00 PM 42.1918 -87.9709 340° North  Level FlightAware Approximate
Thu 09:54:59 PM 42.1500 -88.0000 349° North 252 290 8,200  Level Chicago TRACON
Thu 09:55:00 PM 42.2668 -87.9959 350° North  Level FlightAware Approximate
Thu 09:55:14 PM 42.1597 -88.0100 323° Northwest 249 287 8,500  Level Chicago Center
Thu 09:56:00 PM 42.3426 -88.0182 347° North  Level FlightAware Approximate
Thu 09:56:16 PM 42.2244 -88.0381 342° North 246 283 10,700  Level Chicago Center
Thu 09:57:00 PM 42.4182 -88.0414 347° North  Level FlightAware Approximate
Thu 09:57:18 PM 42.3150 -88.0789 342° North 286 329 12,100  Level Chicago Center
Thu 09:58:00 PM 42.4856 -88.0622 347° North  Level FlightAware Approximate
Thu 09:58:20 PM 42.3939 -88.1150 341° North 322 371 12,100  Level Chicago Center
Thu 09:59:21 PM 42.4983 -88.1625 341° North 338 389 12,100  Level Chicago Center
Thu 10:00:23 PM 42.5947 -88.1686 357° North 346 398 12,100  Level Chicago Center
Thu 10:01:25 PM 42.6914 -88.1642 North 347 399 12,100  Level Chicago Center
Thu 10:02:26 PM 42.7878 -88.1614 North 346 398 12,100  Level Chicago Center
Thu 10:04:16 PM 42.9639 -88.1578 North 337 388 12,100  Level Minneapolis Center
Thu 10:04:34 PM 43.0000 -88.1500 North 350 403 12,100  Level KMKE
Thu 10:05:32 PM 43.0936 -88.1547 358° North 349 402 12,100  Level Chicago Center
Thu 10:06:33 PM 43.1919 -88.1536 360° North 352 405 12,100  Level Chicago Center
Thu 10:07:35 PM 43.2883 -88.1522 North 349 402 12,100  Level Chicago Center
Thu 10:08:36 PM 43.3864 -88.1503 North 353 406 12,100  Level Chicago Center
Thu 10:09:38 PM 43.4836 -88.1483 North 354 407 12,100  Level Chicago Center
Thu 10:10:40 PM 43.5819 -88.1464 North 356 410 12,100 -275 Level Chicago Center
Thu 10:11:27 PM 43.6636 -88.1450 North 356 410 11,600 -826 Descending Minneapolis Center
Thu 10:12:29 PM 43.7592 -88.1433 North 347 399 10,600 -711 Descending Minneapolis Center
Thu 10:13:42 PM 43.8664 -88.1414 North 333 383 10,000 -267 Descending Minneapolis Center
Thu 10:14:44 PM 43.9708 -88.1397 North 323 372 10,000  Level Minneapolis Center
Thu 10:15:45 PM 44.0628 -88.1378 North 330 380 10,000  Level Minneapolis Center
Thu 10:16:47 PM 44.1547 -88.1367 360° North 331 381 10,000 -762 Level Minneapolis Center
Thu 10:17:51 PM 44.2386 -88.1347 North 253 291 8,400 -2,112 Descending Minneapolis Center
Thu 10:18:52 PM 44.2950 -88.1319 North 214 246 5,600 -2,098 Descending Minneapolis Center
Thu 10:19:54 PM 44.3469 -88.1339 358° North 195 224 4,100 -1,452 Descending Minneapolis Center

Login

Don't have an account? Register now (free) for customized features, flight alerts, and more!